Time,TemperatureF,DewpointF,PressureIn,WindDirection,WindDirectionDegrees,WindSpeedMPH,WindSpeedGustMPH,Humidity,HourlyPrecipIn,Conditions,Clouds,dailyrainin,SolarRadiationWatts/m^2,SoftwareType,DateUTC
2013-09-02 00:01:00,59.0,56.0,-100.00,ESE,119,1.0,3.0,89,0.00,,,0.00,1.000000,,2013-09-02 07:01:00,
2013-09-02 00:10:00,57.0,55.0,-100.00,SE,125,0.0,1.0,93,0.00,,,0.00,1.000000,,2013-09-02 07:10:00,
2013-09-02 00:42:00,57.0,55.0,-100.00,SE,125,0.0,1.0,93,0.00,,,0.00,1.000000,,2013-09-02 07:42:00,
2013-09-02 00:52:00,57.0,55.0,-100.00,SE,125,0.0,1.0,93,0.00,,,0.00,1.000000,,2013-09-02 07:52:00,
2013-09-02 01:02:00,57.0,55.0,-100.00,SE,125,0.0,1.0,93,0.00,,,0.00,1.000000,,2013-09-02 08:02:00,
2013-09-02 01:10:00,55.0,54.0,-100.00,SE,130,0.0,1.0,95,0.00,,,0.00,1.000000,,2013-09-02 08:10:00,
2013-09-02 01:42:00,55.0,54.0,-100.00,SE,130,0.0,1.0,95,0.00,,,0.00,1.000000,,2013-09-02 08:42:00,
2013-09-02 01:52:00,55.0,54.0,-100.00,SE,130,0.0,1.0,95,0.00,,,0.00,1.000000,,2013-09-02 08:52:00,
2013-09-02 02:01:00,55.0,54.0,-100.00,SE,130,0.0,1.0,95,0.00,,,0.00,1.000000,,2013-09-02 09:01:00,
2013-09-02 02:10:00,54.0,53.0,-100.00,SE,130,0.0,1.0,96,0.00,,,0.00,1.000000,,2013-09-02 09:10:00,
2013-09-02 02:44:00,54.0,53.0,-100.00,SE,130,0.0,1.0,96,0.00,,,0.00,1.000000,,2013-09-02 09:44:00,
2013-09-02 02:53:00,54.0,53.0,-100.00,SE,130,0.0,1.0,96,0.00,,,0.00,1.000000,,2013-09-02 09:53:00,
2013-09-02 03:03:00,54.0,53.0,-100.00,SE,130,0.0,1.0,96,0.00,,,0.00,1.000000,,2013-09-02 10:03:00,
2013-09-02 03:10:00,54.0,53.0,-100.00,SE,139,1.0,2.0,97,0.00,,,0.00,1.000000,,2013-09-02 10:10:00,
2013-09-02 03:42:00,54.0,53.0,-100.00,SE,139,1.0,2.0,97,0.00,,,0.00,1.000000,,2013-09-02 10:42:00,
2013-09-02 03:53:00,54.0,53.0,-100.00,SE,139,1.0,2.0,97,0.00,,,0.00,1.000000,,2013-09-02 10:53:00,
2013-09-02 04:03:00,54.0,53.0,-100.00,SE,139,1.0,2.0,97,0.00,,,0.00,1.000000,,2013-09-02 11:03:00,
2013-09-02 04:10:00,53.0,52.0,-100.00,NNW,335,0.0,2.0,97,0.00,,,0.00,1.000000,,2013-09-02 11:10:00,
2013-09-02 04:42:00,53.0,52.0,-100.00,NNW,335,0.0,2.0,97,0.00,,,0.00,1.000000,,2013-09-02 11:42:00,
2013-09-02 04:52:00,53.0,52.0,-100.00,NNW,335,0.0,2.0,97,0.00,,,0.00,1.000000,,2013-09-02 11:52:00,
2013-09-02 05:01:00,53.0,52.0,-100.00,NNW,335,0.0,2.0,97,0.00,,,0.00,1.000000,,2013-09-02 12:01:00,
2013-09-02 05:10:00,52.0,51.0,-100.00,East,81,0.0,2.0,97,0.00,,,0.00,1.000000,,2013-09-02 12:10:00,
2013-09-02 05:43:00,52.0,51.0,-100.00,East,81,0.0,2.0,97,0.00,,,0.00,1.000000,,2013-09-02 12:43:00,
2013-09-02 05:52:00,52.0,51.0,-100.00,East,81,0.0,2.0,97,0.00,,,0.00,1.000000,,2013-09-02 12:52:00,
2013-09-02 06:02:00,52.0,51.0,-100.00,East,81,0.0,2.0,97,0.00,,,0.00,1.000000,,2013-09-02 13:02:00,
2013-09-02 06:10:00,52.0,51.0,-100.00,East,96,0.0,2.0,97,0.00,,,0.00,1.000000,,2013-09-02 13:10:00,
2013-09-02 06:42:00,52.0,51.0,-100.00,East,96,0.0,2.0,97,0.00,,,0.00,1.000000,,2013-09-02 13:42:00,
2013-09-02 06:52:00,52.0,51.0,-100.00,East,96,0.0,2.0,97,0.00,,,0.00,1.000000,,2013-09-02 13:52:00,
2013-09-02 07:02:00,52.0,51.0,-100.00,East,96,0.0,2.0,97,0.00,,,0.00,1.000000,,2013-09-02 14:02:00,
2013-09-02 07:10:00,54.0,53.0,-100.00,South,177,0.0,4.0,96,0.00,,,0.00,9.000000,,2013-09-02 14:10:00,
2013-09-02 07:43:00,54.0,53.0,-100.00,South,177,0.0,4.0,96,0.00,,,0.00,9.000000,,2013-09-02 14:43:00,
2013-09-02 07:52:00,54.0,53.0,-100.00,South,177,0.0,4.0,96,0.00,,,0.00,9.000000,,2013-09-02 14:52:00,
2013-09-02 08:02:00,54.0,53.0,-100.00,South,177,0.0,4.0,96,0.00,,,0.00,9.000000,,2013-09-02 15:02:00,
2013-09-02 08:10:00,55.0,54.0,-100.00,South,177,0.0,0.0,96,0.00,,,0.00,48.000000,,2013-09-02 15:10:00,
2013-09-02 08:45:00,55.0,54.0,-100.00,South,177,0.0,0.0,96,0.00,,,0.00,48.000000,,2013-09-02 15:45:00,
2013-09-02 08:55:00,55.0,54.0,-100.00,South,177,0.0,0.0,96,0.00,,,0.00,48.000000,,2013-09-02 15:55:00,
2013-09-02 09:04:00,55.0,54.0,-100.00,South,177,0.0,0.0,96,0.00,,,0.00,48.000000,,2013-09-02 16:04:00,
2013-09-02 09:10:00,66.0,58.0,-100.00,North,10,1.0,5.0,76,0.00,,,0.00,271.000000,,2013-09-02 16:10:00,
2013-09-02 09:43:00,66.0,58.0,-100.00,North,10,1.0,5.0,76,0.00,,,0.00,271.000000,,2013-09-02 16:43:00,
2013-09-02 09:53:00,66.0,58.0,-100.00,North,10,1.0,5.0,76,0.00,,,0.00,271.000000,,2013-09-02 16:53:00,
2013-09-02 10:03:00,66.0,58.0,-100.00,North,10,1.0,5.0,76,0.00,,,0.00,271.000000,,2013-09-02 17:03:00,
2013-09-02 10:10:00,71.0,58.0,-100.00,SE,133,2.0,4.0,64,0.00,,,0.00,412.000000,,2013-09-02 17:10:00,
2013-09-02 10:52:00,71.0,58.0,-100.00,SE,133,2.0,4.0,64,0.00,,,0.00,412.000000,,2013-09-02 17:52:00,
2013-09-02 11:02:00,71.0,58.0,-100.00,SE,133,2.0,4.0,64,0.00,,,0.00,412.000000,,2013-09-02 18:02:00,
2013-09-02 11:10:00,73.0,57.0,-100.00,WNW,302,3.0,6.0,58,0.00,,,0.00,426.000000,,2013-09-02 18:10:00,
2013-09-02 11:42:00,73.0,57.0,-100.00,WNW,302,3.0,6.0,58,0.00,,,0.00,426.000000,,2013-09-02 18:42:00,
2013-09-02 11:52:00,73.0,57.0,-100.00,WNW,302,3.0,6.0,58,0.00,,,0.00,426.000000,,2013-09-02 18:52:00,
2013-09-02 12:02:00,73.0,57.0,-100.00,WNW,302,3.0,6.0,58,0.00,,,0.00,426.000000,,2013-09-02 19:02:00,
2013-09-02 12:10:00,76.0,56.0,-100.00,South,182,3.0,6.0,50,0.00,,,0.00,577.000000,,2013-09-02 19:10:00,
2013-09-02 12:42:00,76.0,56.0,-100.00,South,182,3.0,6.0,50,0.00,,,0.00,577.000000,,2013-09-02 19:42:00,
2013-09-02 12:52:00,76.0,56.0,-100.00,South,182,3.0,6.0,50,0.00,,,0.00,577.000000,,2013-09-02 19:52:00,
2013-09-02 13:02:00,76.0,56.0,-100.00,South,182,3.0,6.0,50,0.00,,,0.00,577.000000,,2013-09-02 20:02:00,
2013-09-02 13:10:00,77.0,55.0,-100.00,NW,308,2.0,8.0,47,0.00,,,0.00,484.000000,,2013-09-02 20:10:00,
2013-09-02 13:42:00,77.0,55.0,-100.00,NW,308,2.0,8.0,47,0.00,,,0.00,484.000000,,2013-09-02 20:42:00,
2013-09-02 13:52:00,77.0,55.0,-100.00,NW,308,2.0,8.0,47,0.00,,,0.00,484.000000,,2013-09-02 20:52:00,
2013-09-02 14:02:00,77.0,55.0,-100.00,NW,308,2.0,8.0,47,0.00,,,0.00,484.000000,,2013-09-02 21:02:00,
2013-09-02 14:10:00,78.0,57.0,-100.00,NW,323,2.0,10.0,48,0.00,,,0.00,400.000000,,2013-09-02 21:10:00,
2013-09-02 14:44:00,78.0,57.0,-100.00,NW,323,2.0,10.0,48,0.00,,,0.00,400.000000,,2013-09-02 21:44:00,
2013-09-02 14:55:00,78.0,57.0,-100.00,NW,323,2.0,10.0,48,0.00,,,0.00,400.000000,,2013-09-02 21:55:00,
2013-09-02 15:04:00,78.0,57.0,-100.00,NW,323,2.0,10.0,48,0.00,,,0.00,400.000000,,2013-09-02 22:04:00,
2013-09-02 15:10:00,76.0,56.0,-100.00,West,260,1.0,8.0,50,0.00,,,0.00,272.000000,,2013-09-02 22:10:00,
2013-09-02 15:44:00,76.0,56.0,-100.00,West,260,1.0,8.0,50,0.00,,,0.00,272.000000,,2013-09-02 22:44:00,
2013-09-02 15:54:00,76.0,56.0,-100.00,West,260,1.0,8.0,50,0.00,,,0.00,272.000000,,2013-09-02 22:54:00,
2013-09-02 16:03:00,76.0,56.0,-100.00,West,260,1.0,8.0,50,0.00,,,0.00,272.000000,,2013-09-02 23:03:00,
2013-09-02 16:10:00,79.0,58.0,-100.00,SW,236,2.0,6.0,48,0.00,,,0.00,314.000000,,2013-09-02 23:10:00,
2013-09-02 16:42:00,79.0,58.0,-100.00,SW,236,2.0,6.0,48,0.00,,,0.00,314.000000,,2013-09-02 23:42:00,
2013-09-02 16:53:00,79.0,58.0,-100.00,SW,236,2.0,6.0,48,0.00,,,0.00,314.000000,,2013-09-02 23:53:00,
2013-09-02 17:01:00,79.0,58.0,-100.00,SW,236,2.0,6.0,48,0.00,,,0.00,314.000000,,2013-09-03 00:01:00,
2013-09-02 17:10:00,79.0,59.0,-100.00,South,187,2.0,8.0,50,0.00,,,0.00,427.000000,,2013-09-03 00:10:00,
2013-09-02 17:42:00,79.0,59.0,-100.00,South,187,2.0,8.0,50,0.00,,,0.00,427.000000,,2013-09-03 00:42:00,
2013-09-02 17:52:00,79.0,59.0,-100.00,South,187,2.0,8.0,50,0.00,,,0.00,427.000000,,2013-09-03 00:52:00,
2013-09-02 18:01:00,79.0,59.0,-100.00,South,187,2.0,8.0,50,0.00,,,0.00,427.000000,,2013-09-03 01:01:00,
2013-09-02 18:10:00,74.0,58.0,-100.00,SW,217,2.0,10.0,58,0.00,,,0.00,341.000000,,2013-09-03 01:10:00,
2013-09-02 18:42:00,74.0,58.0,-100.00,SW,217,2.0,10.0,58,0.00,,,0.00,341.000000,,2013-09-03 01:42:00,
2013-09-02 18:52:00,74.0,58.0,-100.00,SW,217,2.0,10.0,58,0.00,,,0.00,341.000000,,2013-09-03 01:52:00,
2013-09-02 19:02:00,74.0,58.0,-100.00,SW,217,2.0,10.0,58,0.00,,,0.00,341.000000,,2013-09-03 02:02:00,
2013-09-02 19:10:00,70.0,58.0,-100.00,West,275,2.0,10.0,65,0.00,,,0.00,48.000000,,2013-09-03 02:10:00,
2013-09-02 19:42:00,70.0,58.0,-100.00,West,275,2.0,10.0,65,0.00,,,0.00,48.000000,,2013-09-03 02:42:00,
2013-09-02 19:52:00,70.0,58.0,-100.00,West,275,2.0,10.0,65,0.00,,,0.00,48.000000,,2013-09-03 02:52:00,
2013-09-02 20:02:00,70.0,58.0,-100.00,West,275,2.0,10.0,65,0.00,,,0.00,48.000000,,2013-09-03 03:02:00,
2013-09-02 20:10:00,67.0,58.0,-100.00,SSE,154,2.0,7.0,74,0.00,,,0.00,5.000000,,2013-09-03 03:10:00,
2013-09-02 20:45:00,67.0,58.0,-100.00,SSE,154,2.0,7.0,74,0.00,,,0.00,5.000000,,2013-09-03 03:45:00,
2013-09-02 20:55:00,67.0,58.0,-100.00,SSE,154,2.0,7.0,74,0.00,,,0.00,5.000000,,2013-09-03 03:55:00,
2013-09-02 21:04:00,67.0,58.0,-100.00,SSE,154,2.0,7.0,74,0.00,,,0.00,5.000000,,2013-09-03 04:04:00,
2013-09-02 21:10:00,64.0,59.0,-100.00,NNE,32,0.0,5.0,84,0.00,,,0.00,1.000000,,2013-09-03 04:10:00,
2013-09-02 21:44:00,64.0,59.0,-100.00,NNE,32,0.0,5.0,84,0.00,,,0.00,1.000000,,2013-09-03 04:44:00,
2013-09-02 21:53:00,64.0,59.0,-100.00,NNE,32,0.0,5.0,84,0.00,,,0.00,1.000000,,2013-09-03 04:53:00,
2013-09-02 22:03:00,64.0,59.0,-100.00,NNE,32,0.0,5.0,84,0.00,,,0.00,1.000000,,2013-09-03 05:03:00,
2013-09-02 22:10:00,64.0,59.0,-100.00,South,183,1.0,5.0,85,0.00,,,0.00,1.000000,,2013-09-03 05:10:00,
2013-09-02 22:43:00,64.0,59.0,-100.00,South,183,1.0,5.0,85,0.00,,,0.00,1.000000,,2013-09-03 05:43:00,
2013-09-02 22:52:00,64.0,59.0,-100.00,South,183,1.0,5.0,85,0.00,,,0.00,1.000000,,2013-09-03 05:52:00,
2013-09-02 23:02:00,64.0,59.0,-100.00,South,183,1.0,5.0,85,0.00,,,0.00,1.000000,,2013-09-03 06:02:00,
2013-09-02 23:10:00,61.0,58.0,-100.00,North,358,0.0,3.0,91,0.00,,,0.00,1.000000,,2013-09-03 06:10:00,
2013-09-02 23:43:00,61.0,58.0,-100.00,North,358,0.0,3.0,91,0.00,,,0.00,1.000000,,2013-09-03 06:43:00,
2013-09-02 23:52:00,61.0,58.0,-100.00,North,358,0.0,3.0,91,0.00,,,0.00,1.000000,,2013-09-03 06:52:00,